Terminal Aerodrome Forecast
Issued by NWS

Home | Current Version | Previous Version | Graphics & Text | Print | Product List | Glossary On
Versions: 1 2 3 4 5 6 7 8 9 10 11 12 13 14 15 16 17
000
FTUS43 KBIS 301306 AAA
TAFDIK
TAF AMD
KDIK 301306Z 3013/3112 19012KT P6SM BKN250
     FM302000 21014G20KT P6SM FEW250
     FM310100 34008KT P6SM VCSH SCT080 SCT150 BKN250
     FM310600 30010KT P6SM VCSH SCT035 BKN080 OVC150=

USA.gov is the U.S. government's official web portal to all federal, state and local government web resources and services.